Time;durP1;ratioP1;P1;durP2;ratioP2;P2;SDS_P1;SDS_P2;PMS_P1;PMS_P2;Temp;Humidity;BMP_temperature;BMP_pressure;BME280_temperature;BME280_humidity;BME280_pressure;Samples;Min_cycle;Max_cycle;Signal;HPM_P1;HPM_P2
2021/01/21 00:00:01;;;;;;;27.47;13.30;;;;;;;2.06;85.68;99617.34;1704656;82;21219;-80
2021/01/21 00:02:27;;;;;;;30.52;14.58;;;;;;;2.09;85.69;99615.19;1709717;82;21754;-80
2021/01/21 00:04:54;;;;;;;31.12;12.98;;;;;;;2.11;85.72;99610.52;1708377;82;21211;-80
2021/01/21 00:07:20;;;;;;;28.25;13.08;;;;;;;2.15;85.75;99603.73;1704027;82;21170;-80
2021/01/21 00:09:46;;;;;;;26.90;12.05;;;;;;;2.19;85.73;99606.70;1701767;82;22053;-80
2021/01/21 00:12:13;;;;;;;27.25;12.43;;;;;;;2.23;85.72;99598.22;1701865;82;21221;-80
2021/01/21 00:14:39;;;;;;;23.38;11.25;;;;;;;2.28;85.72;99593.55;1699609;82;21201;-80
2021/01/21 00:17:05;;;;;;;22.00;11.08;;;;;;;2.32;85.72;99591.85;1701119;82;22008;-80
2021/01/21 00:19:31;;;;;;;24.70;11.28;;;;;;;2.38;85.71;99596.11;1701833;82;21216;-80
2021/01/21 00:21:58;;;;;;;24.30;11.20;;;;;;;2.43;85.71;99600.36;1706623;82;22283;-80
2021/01/21 00:24:24;;;;;;;24.43;11.08;;;;;;;2.50;85.69;99599.95;1712511;82;21221;-80
2021/01/21 00:26:50;;;;;;;23.42;10.28;;;;;;;2.55;85.68;99597.82;1711283;82;21221;-80
2021/01/21 00:29:16;;;;;;;20.95;10.55;;;;;;;2.60;85.64;99588.89;1701500;82;21661;-80
2021/01/21 00:31:43;;;;;;;21.95;10.50;;;;;;;2.64;85.61;99586.73;1701770;82;21213;-80
2021/01/21 00:34:11;;;;;;;21.20;10.72;;;;;;;2.69;85.61;99586.30;1703141;82;21216;-80
2021/01/21 00:36:37;;;;;;;22.22;9.68;;;;;;;2.74;85.58;99587.15;1701685;82;21185;-80
2021/01/21 00:39:06;;;;;;;21.37;10.23;;;;;;;2.78;85.55;99579.91;1697200;82;21579;-80
2021/01/21 00:41:32;;;;;;;22.62;9.68;;;;;;;2.82;85.54;99579.48;1704929;82;22333;-80
2021/01/21 00:43:58;;;;;;;;;;;;;;;2.87;85.51;99575.22;1677736;84;22074;-80
2021/01/21 00:46:25;;;;;;;17.30;9.20;;;;;;;2.91;85.46;99571.38;1714869;82;20224;-80
2021/01/21 00:48:51;;;;;;;19.02;9.45;;;;;;;2.95;85.47;99574.36;1700222;82;21710;-81
2021/01/21 00:51:19;;;;;;;21.37;10.23;;;;;;;2.97;85.42;99574.35;1701087;82;21228;-81
2021/01/21 00:53:46;;;;;;;19.75;9.55;;;;;;;3.01;85.38;99584.13;1703736;82;21936;-81
2021/01/21 00:56:13;;;;;;;18.85;8.45;;;;;;;3.02;85.31;99582.00;1701322;82;21086;-81
2021/01/21 00:58:39;;;;;;;23.75;10.13;;;;;;;3.02;85.31;99573.06;1701142;82;21709;-81
2021/01/21 01:01:06;;;;;;;19.30;9.93;;;;;;;3.03;85.27;99576.89;1689675;82;21448;-81
2021/01/21 01:03:32;;;;;;;23.12;10.53;;;;;;;3.04;85.26;99568.38;1701384;82;21197;-80
2021/01/21 01:05:59;;;;;;;20.62;10.13;;;;;;;3.01;85.22;99564.55;1702065;82;22045;-80
2021/01/21 01:08:25;;;;;;;21.05;9.20;;;;;;;2.99;85.17;99568.39;1701615;82;21193;-80
2021/01/21 01:10:51;;;;;;;23.22;9.88;;;;;;;2.98;85.22;99565.41;1708417;82;21192;-80
2021/01/21 01:13:17;;;;;;;21.42;10.63;;;;;;;2.96;85.20;99564.56;1715521;82;21201;-80
2021/01/21 01:15:44;;;;;;;16.52;9.93;;;;;;;2.95;85.21;99563.30;1701620;82;21193;-80
2021/01/21 01:18:10;;;;;;;19.90;9.10;;;;;;;2.93;85.19;99565.84;1700506;82;21247;-81
2021/01/21 01:20:36;;;;;;;20.88;10.75;;;;;;;2.92;85.18;99562.02;1704522;82;21169;-81
2021/01/21 01:23:02;;;;;;;21.07;9.45;;;;;;;2.89;85.19;99564.16;1694931;82;21177;-81
2021/01/21 01:25:29;;;;;;;17.02;8.55;;;;;;;2.88;85.19;99563.73;1698509;82;21157;-81
2021/01/21 01:27:55;;;;;;;17.25;9.70;;;;;;;2.87;85.18;99563.30;1701580;82;21551;-81
2021/01/21 01:30:22;;;;;;;18.35;9.93;;;;;;;2.86;85.19;99558.20;1701520;82;22262;-81
2021/01/21 01:32:48;;;;;;;;;;;;;;;2.84;85.18;99556.92;1703993;82;21200;-81
2021/01/21 01:35:15;;;;;;;;;;;;;;;2.84;85.17;99558.20;1702492;82;20288;-80
2021/01/21 01:37:46;;;;;;;21.57;10.00;;;;;;;2.82;85.11;99559.06;1701489;82;20295;-80
2021/01/21 01:40:11;;;;;;;17.60;9.18;;;;;;;2.64;85.16;99529.30;1699194;82;21241;-80
2021/01/21 01:42:38;;;;;;;18.32;9.28;;;;;;;2.78;85.15;99560.77;1700098;82;21946;-80
2021/01/21 01:45:07;;;;;;;19.20;9.48;;;;;;;2.76;85.17;99562.47;1699804;82;21218;-80
2021/01/21 01:47:34;;;;;;;20.48;10.00;;;;;;;2.75;85.19;99562.05;1698085;82;21653;-80
2021/01/21 01:50:00;;;;;;;16.82;9.13;;;;;;;2.73;85.15;99553.54;1708387;82;21614;-80
2021/01/21 01:52:27;;;;;;;18.15;9.28;;;;;;;2.73;85.18;99556.52;1718605;82;21470;-80
2021/01/21 01:54:54;;;;;;;25.27;8.85;;;;;;;2.72;85.14;99552.27;1714848;82;21669;-80
2021/01/21 01:57:21;;;;;;;;;;;;;;;2.71;85.17;99542.91;1706936;82;21654;-80
2021/01/21 01:59:52;;;;;;;17.32;8.78;;;;;;;2.71;85.16;99545.03;1703457;82;20557;-81
2021/01/21 02:02:18;;;;;;;19.35;9.03;;;;;;;2.70;85.17;99542.48;1712352;82;21721;-81
2021/01/21 02:04:46;;;;;;;16.05;9.08;;;;;;;2.68;85.14;99544.19;1706039;82;21173;-81
2021/01/21 02:07:13;;;;;;;17.65;9.08;;;;;;;2.66;85.10;99542.48;1701506;82;21935;-81
2021/01/21 02:09:41;;;;;;;18.00;9.28;;;;;;;2.64;85.16;99542.92;1701629;82;21213;-80
2021/01/21 02:12:59;;;;;;;18.77;9.33;;;;;;;2.61;85.16;99536.54;1700821;82;21182;-80
2021/01/21 02:15:45;;;;;;;16.40;8.70;;;;;;;2.60;85.15;99541.22;1697457;82;21197;-80
2021/01/21 02:18:23;;;;;;;18.90;9.40;;;;;;;2.59;85.11;99545.08;1700193;82;22203;-81
2021/01/21 02:21:29;;;;;;;18.23;9.50;;;;;;;2.58;85.14;99540.83;1708737;82;21169;-80
2021/01/21 02:24:07;;;;;;;17.70;9.50;;;;;;;2.58;85.16;99544.23;1669984;82;21274;-81
2021/01/21 02:26:55;;;;;;;17.62;8.40;;;;;;;2.57;85.14;99542.53;1699472;82;21185;-81
2021/01/21 02:29:34;;;;;;;17.23;8.95;;;;;;;2.55;85.18;99533.17;1700683;82;21153;-81
2021/01/21 02:32:30;;;;;;;16.05;8.88;;;;;;;2.53;85.14;99535.73;1705111;82;21134;-81
2021/01/21 02:35:09;;;;;;;17.52;9.73;;;;;;;2.51;85.13;99539.98;1695164;82;21213;-80
2021/01/21 02:37:38;;;;;;;16.35;8.98;;;;;;;2.45;85.05;99540.41;1701656;82;21185;-80
2021/01/21 02:40:06;;;;;;;15.90;8.08;;;;;;;2.40;85.09;99545.94;1700690;82;182994;-80
2021/01/21 02:42:46;;;;;;;18.92;8.65;;;;;;;2.35;85.10;99539.56;1660243;84;21221;-80
2021/01/21 02:45:13;;;;;;;17.23;8.00;;;;;;;2.32;85.10;99542.11;1695116;83;21210;-80
2021/01/21 02:47:41;;;;;;;19.85;9.15;;;;;;;2.28;85.08;99534.03;1699953;83;21640;-80
2021/01/21 02:50:09;;;;;;;19.57;9.03;;;;;;;2.23;85.08;99528.08;1696018;83;21202;-80
2021/01/21 02:52:48;;;;;;;14.68;8.73;;;;;;;2.18;85.10;99525.53;1692926;83;21662;-80
2021/01/21 02:55:43;;;;;;;17.23;9.28;;;;;;;2.14;85.04;99526.80;1695459;83;21202;-81
2021/01/21 02:58:32;;;;;;;18.90;9.40;;;;;;;2.03;84.96;99523.00;1696390;83;21139;-81
2021/01/21 03:01:02;;;;;;;17.48;9.50;;;;;;;1.95;85.00;99522.14;1670291;84;21212;-81
2021/01/21 03:03:30;;;;;;;19.27;9.80;;;;;;;1.88;85.09;99528.08;1694565;83;21636;-80
2021/01/21 03:06:00;;;;;;;19.02;8.85;;;;;;;1.84;85.09;99535.30;1695183;83;21185;-80
2021/01/21 03:08:29;;;;;;;17.80;9.38;;;;;;;1.80;85.12;99533.58;1695167;83;21248;-80
2021/01/21 03:11:11;;;;;;;17.45;9.25;;;;;;;1.76;85.19;99534.00;1699676;83;21202;-80
2021/01/21 03:13:45;;;;;;;16.85;8.93;;;;;;;1.72;85.18;99528.47;1707334;82;21322;-80
2021/01/21 03:16:12;;;;;;;17.30;9.38;;;;;;;1.70;85.20;99527.62;1689841;84;21217;-80
2021/01/21 03:18:38;;;;;;;16.77;9.25;;;;;;;1.68;85.22;99527.19;1685676;83;22203;-80
2021/01/21 03:21:05;;;;;;;18.48;9.88;;;;;;;1.65;85.23;99523.78;1699026;83;21194;-80
2021/01/21 03:23:31;;;;;;;17.62;9.15;;;;;;;1.62;85.20;99523.77;1698849;83;21341;-80
2021/01/21 03:25:57;;;;;;;15.85;9.25;;;;;;;1.59;85.22;99519.95;1694764;83;22007;-80
2021/01/21 03:28:23;;;;;;;20.72;9.55;;;;;;;1.59;85.28;99528.02;1694445;83;21188;-80
2021/01/21 03:30:50;;;;;;;11.88;6.95;;;;;;;1.59;85.25;99526.73;1688574;83;22306;-80
2021/01/21 03:33:16;;;;;;;18.90;9.48;;;;;;;1.57;85.27;99529.28;1690862;83;22064;-80
2021/01/21 03:35:42;;;;;;;19.27;10.10;;;;;;;1.57;85.29;99529.28;1695246;84;21209;-80
2021/01/21 03:38:08;;;;;;;20.02;9.73;;;;;;;1.56;85.33;99525.03;1698729;83;21197;-80
2021/01/21 03:40:35;;;;;;;17.17;8.98;;;;;;;1.55;85.32;99520.81;1699014;83;21737;-80
2021/01/21 03:43:01;;;;;;;18.70;9.63;;;;;;;1.56;85.35;99526.77;1699862;82;21702;-80
2021/01/21 03:45:27;;;;;;;19.45;10.68;;;;;;;1.57;85.34;99528.43;1720594;82;21222;-80
2021/01/21 03:47:53;;;;;;;21.17;10.15;;;;;;;1.59;85.38;99528.02;1715550;83;21216;-80
2021/01/21 03:50:20;;;;;;;17.55;9.43;;;;;;;1.58;85.37;99523.34;1711683;82;21547;-80
2021/01/21 03:52:46;;;;;;;18.65;9.93;;;;;;;1.60;85.38;99525.89;1716307;82;21583;-80
2021/01/21 03:55:13;;;;;;;18.45;9.95;;;;;;;1.62;85.36;99530.56;1715900;82;21237;-80
2021/01/21 03:57:39;;;;;;;;;;;;;;;1.63;85.40;99522.08;1716191;82;21230;-80
2021/01/21 04:00:06;;;;;;;16.90;9.33;;;;;;;1.66;85.37;99524.63;1709482;82;20848;-80
2021/01/21 04:02:32;;;;;;;18.75;9.25;;;;;;;1.68;85.41;99526.77;1702048;82;21199;-80
2021/01/21 04:04:59;;;;;;;18.73;9.93;;;;;;;1.69;85.35;99527.19;1714330;82;21206;-80
2021/01/21 04:07:25;;;;;;;20.50;10.43;;;;;;;1.72;85.39;99526.34;1711173;83;21189;-80
2021/01/21 04:09:51;;;;;;;21.15;10.20;;;;;;;1.72;85.41;99518.28;1709040;82;21246;-80
2021/01/21 04:12:18;;;;;;;16.80;9.20;;;;;;;1.74;85.33;99526.78;1705608;82;21624;-80
2021/01/21 04:14:44;;;;;;;17.85;9.50;;;;;;;1.74;85.33;99526.78;1711028;83;22438;-80
2021/01/21 04:17:10;;;;;;;18.12;9.53;;;;;;;1.75;85.37;99526.35;1710521;83;21561;-80
2021/01/21 04:19:36;;;;;;;19.70;10.13;;;;;;;1.76;85.35;99517.86;1700888;82;21187;-80
2021/01/21 04:22:03;;;;;;;25.45;10.23;;;;;;;1.77;85.34;99513.19;1717698;82;21199;-80
2021/01/21 04:24:29;;;;;;;16.93;9.70;;;;;;;1.77;85.35;99510.22;1709666;83;21170;-80
2021/01/21 04:26:55;;;;;;;20.40;9.53;;;;;;;1.78;85.36;99500.45;1707339;82;22042;-80
2021/01/21 04:29:22;;;;;;;18.07;9.75;;;;;;;1.80;85.39;99502.58;1717824;82;21490;-80
2021/01/21 04:31:48;;;;;;;17.73;9.10;;;;;;;1.83;85.37;99500.46;1700428;82;21182;-80
2021/01/21 04:34:14;;;;;;;18.92;10.10;;;;;;;1.85;85.38;99497.48;1707941;82;21235;-80
2021/01/21 04:36:40;;;;;;;17.20;9.93;;;;;;;1.88;85.42;99491.97;1706557;82;21153;-81
2021/01/21 04:39:07;;;;;;;20.85;9.95;;;;;;;1.91;85.40;99494.52;1712267;82;21245;-81
2021/01/21 04:41:33;;;;;;;14.38;8.18;;;;;;;1.95;85.39;99493.67;1706838;82;21185;-81
2021/01/21 04:44:00;;;;;;;21.52;10.63;;;;;;;1.98;85.36;99488.58;1705837;82;21185;-81
2021/01/21 04:46:27;;;;;;;18.15;9.63;;;;;;;2.01;85.37;99495.38;1714205;83;21216;-81
2021/01/21 04:48:54;;;;;;;19.90;9.70;;;;;;;2.05;85.37;99488.58;1702197;81;21221;-81
2021/01/21 04:51:21;;;;;;;22.50;11.93;;;;;;;2.07;85.37;99491.98;1711126;81;143422;-81
2021/01/21 04:53:52;;;;;;;21.25;11.08;;;;;;;2.09;85.34;99482.17;1716685;82;21215;-81
2021/01/21 04:56:25;;;;;;;19.48;10.50;;;;;;;2.12;85.40;99486.42;1688826;82;21232;-81
2021/01/21 04:59:00;;;;;;;22.05;10.82;;;;;;;2.16;85.34;99482.61;1684366;83;21207;-81
2021/01/21 05:01:26;;;;;;;18.85;8.88;;;;;;;2.19;85.34;99474.95;1701293;82;21196;-81
2021/01/21 05:03:54;;;;;;;17.48;9.60;;;;;;;2.22;85.34;99479.20;1704172;83;21268;-81
2021/01/21 05:06:21;;;;;;;16.62;10.00;;;;;;;2.27;85.35;99483.45;1704901;82;21227;-81
2021/01/21 05:08:48;;;;;;;16.62;9.20;;;;;;;2.31;85.33;99480.47;1711920;82;21183;-81
2021/01/21 05:11:14;;;;;;;21.00;10.18;;;;;;;2.35;85.34;99479.62;1705307;83;21211;-81
2021/01/21 05:13:40;;;;;;;16.97;9.45;;;;;;;2.41;85.35;99485.14;1713643;82;21204;-81
2021/01/21 05:16:07;;;;;;;17.87;8.93;;;;;;;2.45;85.33;99480.03;1707533;82;21654;-80
2021/01/21 05:18:36;;;;;;;18.10;9.43;;;;;;;2.48;85.28;99471.09;1703338;83;21286;-80
2021/01/21 05:21:06;;;;;;;15.83;9.25;;;;;;;2.49;85.22;99463.87;1693143;82;21225;-80
2021/01/21 05:23:33;;;;;;;17.40;10.03;;;;;;;2.50;85.23;99467.27;1710075;82;21105;-80
2021/01/21 05:26:00;;;;;;;20.68;10.23;;;;;;;2.50;85.18;99465.56;1695521;83;21107;-80
2021/01/21 05:28:27;;;;;;;24.92;11.30;;;;;;;2.51;85.18;99463.44;1700416;82;21227;-80
2021/01/21 05:30:59;;;;;;;22.40;10.38;;;;;;;2.51;85.17;99454.51;1705261;82;21158;-80
2021/01/21 05:33:28;;;;;;;18.48;10.00;;;;;;;2.51;85.17;99450.69;1703753;82;21307;-81
2021/01/21 05:35:56;;;;;;;16.70;9.33;;;;;;;2.51;85.14;99451.11;1663698;84;21141;-80
2021/01/21 05:38:23;;;;;;;20.12;9.23;;;;;;;2.50;85.11;99453.23;1712721;82;21184;-80
2021/01/21 05:40:51;;;;;;;17.20;8.93;;;;;;;2.48;85.09;99451.11;1716204;82;21251;-80
2021/01/21 05:43:18;;;;;;;15.72;9.93;;;;;;;2.44;85.09;99448.14;1693400;82;21246;-80
2021/01/21 05:45:45;;;;;;;15.83;9.40;;;;;;;2.42;85.14;99447.30;1711376;82;21581;-80
2021/01/21 05:48:13;;;;;;;18.77;9.63;;;;;;;2.41;85.17;99435.39;1713690;82;21181;-80
2021/01/21 05:50:40;;;;;;;16.97;10.00;;;;;;;2.39;85.16;99436.67;1700850;82;21216;-80
2021/01/21 05:53:08;;;;;;;17.23;9.13;;;;;;;2.38;85.14;99429.87;1708698;82;21839;-80
2021/01/21 05:55:37;;;;;;;16.42;10.15;;;;;;;2.35;85.13;99433.70;1701238;82;21423;-80
2021/01/21 05:58:05;;;;;;;19.37;11.15;;;;;;;2.35;85.15;99427.75;1701673;82;21189;-80
2021/01/21 06:00:33;;;;;;;17.23;10.20;;;;;;;2.35;85.18;99426.48;1696896;82;21205;-80
2021/01/21 06:03:00;;;;;;;17.80;9.23;;;;;;;2.35;85.19;99429.87;1698035;82;21205;-80
2021/01/21 06:05:27;;;;;;;15.40;9.48;;;;;;;2.33;85.21;99422.23;1694798;82;21794;-80
2021/01/21 06:07:53;;;;;;;15.70;9.83;;;;;;;2.36;85.26;99424.35;1704860;82;25819;-80
2021/01/21 06:10:22;;;;;;;15.68;9.73;;;;;;;2.39;85.30;99429.02;1701611;82;21611;-79
2021/01/21 06:12:53;;;;;;;14.58;9.93;;;;;;;2.43;85.31;99434.54;1699662;82;21218;-80
2021/01/21 06:15:20;;;;;;;16.80;9.80;;;;;;;2.46;85.27;99430.70;1699838;82;21123;-81
2021/01/21 06:17:49;;;;;;;16.52;9.60;;;;;;;2.49;85.27;99433.25;1705468;82;21201;-81
2021/01/21 06:20:17;;;;;;;17.77;9.93;;;;;;;2.50;85.23;99433.67;1703356;83;21257;-80
2021/01/21 06:22:46;;;;;;;18.17;9.58;;;;;;;2.53;85.20;99439.20;1704979;82;21744;-82
2021/01/21 06:25:17;;;;;;;19.23;9.98;;;;;;;2.53;85.19;99435.38;1710660;82;21242;-81
2021/01/21 06:27:46;;;;;;;15.83;9.95;;;;;;;2.55;85.15;99438.77;1715445;82;21240;-81
2021/01/21 06:30:17;;;;;;;14.28;9.40;;;;;;;2.56;85.14;99443.02;1710257;82;21908;-82
2021/01/21 06:33:07;;;;;;;17.48;9.33;;;;;;;2.55;85.12;99438.34;1670782;82;21288;-82
2021/01/21 06:35:42;;;;;;;15.68;9.80;;;;;;;2.54;85.08;99440.47;1703866;82;21195;-81
2021/01/21 06:38:15;;;;;;;15.20;10.08;;;;;;;2.54;85.10;99446.00;1702598;82;21247;-81
2021/01/21 06:40:50;;;;;;;15.68;9.90;;;;;;;2.54;85.07;99438.34;1698106;82;21265;-82
2021/01/21 06:43:19;;;;;;;17.20;10.90;;;;;;;2.54;85.12;99439.63;1701860;83;21159;-82
2021/01/21 06:45:46;;;;;;;22.27;11.20;;;;;;;2.56;85.14;99445.14;1695907;83;21213;-81
2021/01/21 06:48:12;;;;;;;19.00;10.18;;;;;;;2.59;85.14;99445.56;1703532;82;21820;-81
2021/01/21 06:50:42;;;;;;;13.62;9.73;;;;;;;2.62;85.14;99451.47;1701204;82;21221;-81
2021/01/21 06:53:10;;;;;;;14.03;9.23;;;;;;;2.59;85.16;99437.48;1699719;82;21234;-82
2021/01/21 06:55:40;;;;;;;17.95;9.95;;;;;;;2.67;85.14;99451.46;1701140;82;22042;-81
2021/01/21 06:58:07;;;;;;;16.20;10.20;;;;;;;2.68;85.11;99445.51;1697804;82;21137;-82
2021/01/21 07:00:43;;;;;;;18.35;9.90;;;;;;;2.69;85.09;99439.55;1701282;82;21110;-82
2021/01/21 07:03:29;;;;;;;17.85;10.05;;;;;;;2.73;85.08;99435.28;1714213;82;21133;-82
2021/01/21 07:06:03;;;;;;;18.57;10.82;;;;;;;2.73;85.02;99428.47;1702459;82;22166;-81
2021/01/21 07:08:30;;;;;;;15.93;9.90;;;;;;;2.74;85.03;99434.00;1703019;82;21559;-81
2021/01/21 07:11:00;;;;;;;18.95;10.58;;;;;;;2.74;85.02;99428.89;1699155;82;24653;-81
2021/01/21 07:13:29;;;;;;;14.40;9.03;;;;;;;2.78;85.08;99433.14;1702979;82;21901;-82
2021/01/21 07:16:04;;;;;;;15.05;9.70;;;;;;;2.84;85.09;99436.09;1693779;83;21262;-82
2021/01/21 07:18:36;;;;;;;16.12;9.30;;;;;;;2.88;85.05;99440.34;1703162;82;21206;-82
2021/01/21 07:21:09;;;;;;;13.58;8.70;;;;;;;2.92;85.04;99431.38;1695132;82;22254;-82
2021/01/21 07:23:59;;;;;;;16.80;9.10;;;;;;;2.96;85.00;99439.45;1701623;83;21279;-82
2021/01/21 07:26:36;;;;;;;15.05;8.95;;;;;;;2.99;84.99;99436.03;1701743;82;21268;-81
2021/01/21 07:29:15;;;;;;;17.98;9.15;;;;;;;3.04;84.98;99438.57;1699595;82;21831;-81
2021/01/21 07:31:59;;;;;;;21.30;9.63;;;;;;;3.09;85.01;99440.25;1698904;82;21214;-81
2021/01/21 07:34:38;;;;;;;16.17;9.53;;;;;;;3.16;84.99;99438.48;1695259;82;21229;-81
2021/01/21 07:37:19;;;;;;;14.45;8.80;;;;;;;3.23;85.01;99433.34;1703548;82;21209;-81
2021/01/21 07:40:07;;;;;;;15.05;8.65;;;;;;;3.30;84.96;99426.48;1702717;82;21193;-81
2021/01/21 07:42:39;;;;;;;13.60;8.40;;;;;;;3.35;84.93;99427.31;1696944;82;21197;-80
2021/01/21 07:45:21;;;;;;;12.53;8.90;;;;;;;3.38;84.88;99429.84;1696207;82;21245;-81
2021/01/21 07:47:52;;;;;;;13.45;8.15;;;;;;;3.42;84.90;99426.42;1700025;83;21665;-81
2021/01/21 07:50:29;;;;;;;13.85;8.78;;;;;;;3.46;84.92;99426.81;1701177;82;21205;-82
2021/01/21 07:52:57;;;;;;;14.05;8.98;;;;;;;3.53;84.91;99411.87;1697239;82;21126;-81
2021/01/21 07:55:36;;;;;;;11.43;7.05;;;;;;;3.59;84.89;99412.25;1672283;82;21205;-81
2021/01/21 07:58:27;;;;;;;11.95;8.13;;;;;;;3.64;84.88;99415.59;1697174;82;21535;-81
2021/01/21 08:01:00;;;;;;;14.73;8.25;;;;;;;3.67;84.82;99413.02;1695931;82;21696;-81
2021/01/21 08:03:38;;;;;;;13.05;8.45;;;;;;;3.71;84.77;99413.84;1700239;82;21166;-81
2021/01/21 08:06:17;;;;;;;18.52;9.15;;;;;;;3.73;84.81;99421.92;1700422;82;21358;-81
2021/01/21 08:08:50;;;;;;;14.00;7.58;;;;;;;3.76;84.79;99421.05;1486540;80;10000243;-81
2021/01/21 08:11:21;;;;;;;15.30;9.03;;;;;;;3.79;84.78;99421.87;1774734;79;21970;-81
2021/01/21 08:13:57;;;;;;;14.87;8.73;;;;;;;3.82;84.80;99428.23;1779768;78;21193;-81
2021/01/21 08:16:28;;;;;;;19.02;10.55;;;;;;;3.85;84.76;99427.37;1753592;80;21165;-81
2021/01/21 08:19:01;;;;;;;17.30;10.15;;;;;;;3.88;84.77;99425.63;1773745;80;22082;-82
2021/01/21 08:21:33;;;;;;;16.57;10.63;;;;;;;3.92;84.73;99439.25;1785516;78;21144;-81
2021/01/21 08:24:02;;;;;;;18.20;10.95;;;;;;;3.95;84.72;99445.61;1780012;78;21182;-81
2021/01/21 08:26:35;;;;;;;16.23;9.93;;;;;;;3.97;84.72;99440.91;1778158;78;21184;-81
2021/01/21 08:29:05;;;;;;;17.23;10.48;;;;;;;4.01;84.67;99447.28;1779430;78;21192;-81
2021/01/21 08:31:47;;;;;;;13.65;9.23;;;;;;;4.03;84.69;99446.41;1776250;78;21193;-81
2021/01/21 08:34:21;;;;;;;18.10;9.68;;;;;;;4.06;84.68;99455.33;1748323;80;21190;-81
2021/01/21 08:36:48;;;;;;;18.52;10.38;;;;;;;4.09;84.69;99455.30;1777068;78;21876;-81
2021/01/21 08:39:18;;;;;;;16.10;9.83;;;;;;;4.13;84.67;99462.52;1772831;78;25929;-81
2021/01/21 08:41:46;;;;;;;18.48;10.13;;;;;;;4.15;84.66;99462.08;1748995;80;21247;-81
2021/01/21 08:44:18;;;;;;;17.90;10.40;;;;;;;4.16;84.64;99458.20;1748096;78;21133;-80
2021/01/21 08:46:58;;;;;;;16.82;9.70;;;;;;;4.18;84.62;99452.64;1775588;78;21102;-82
2021/01/21 08:49:26;;;;;;;15.93;9.10;;;;;;;4.20;84.58;99459.02;1779028;79;21920;-80
2021/01/21 08:52:10;;;;;;;17.82;10.43;;;;;;;4.20;84.60;99467.55;1781811;78;21118;-80
2021/01/21 08:54:39;;;;;;;14.87;9.98;;;;;;;4.24;84.62;99465.80;1774614;79;21105;-81
2021/01/21 08:57:11;;;;;;;15.50;10.63;;;;;;;4.27;84.65;99469.19;1772348;80;21098;-81
2021/01/21 08:59:39;;;;;;;20.40;10.68;;;;;;;4.30;84.64;99466.60;1778673;78;21493;-81
2021/01/21 09:02:05;;;;;;;18.95;9.95;;;;;;;4.36;84.64;99461.02;1777913;80;21807;-80
2021/01/21 09:04:35;;;;;;;17.77;10.90;;;;;;;4.40;84.63;99452.02;1778788;80;21145;-82
2021/01/21 09:07:02;;;;;;;19.20;10.05;;;;;;;4.44;84.59;99457.95;1774767;78;21515;-81
2021/01/21 09:09:37;;;;;;;14.90;9.75;;;;;;;4.48;84.60;99451.94;1778188;80;20967;-80
2021/01/21 09:12:26;;;;;;;19.12;10.08;;;;;;;4.52;84.57;99454.88;1741109;80;21189;-81
2021/01/21 09:15:03;;;;;;;17.40;10.72;;;;;;;4.53;84.53;99457.42;1765546;79;21541;-80
2021/01/21 09:17:33;;;;;;;15.63;10.05;;;;;;;4.57;84.50;99450.13;1771783;80;21173;-80
2021/01/21 09:20:01;;;;;;;14.60;9.10;;;;;;;4.59;84.49;99438.16;1776899;80;21702;-81
2021/01/21 09:22:44;;;;;;;16.85;9.83;;;;;;;4.62;84.49;99441.12;1775711;80;21161;-80
2021/01/21 09:25:10;;;;;;;18.05;9.98;;;;;;;4.65;84.50;99449.63;1777392;79;21181;-80
2021/01/21 09:27:43;;;;;;;16.07;9.13;;;;;;;4.71;84.46;99447.83;1773759;79;22432;-80
2021/01/21 09:30:11;;;;;;;17.10;9.90;;;;;;;4.75;84.48;99439.25;1771960;80;21417;-81
2021/01/21 09:32:44;;;;;;;11.93;8.68;;;;;;;4.79;84.48;99428.11;1747980;80;21177;-81
2021/01/21 09:35:19;;;;;;;21.57;11.10;;;;;;;4.83;84.46;99429.77;1785804;78;21145;-81
2021/01/21 09:37:53;;;;;;;19.20;10.95;;;;;;;4.86;84.50;99425.89;1769288;78;21187;-81
2021/01/21 09:40:23;;;;;;;14.43;8.73;;;;;;;4.89;84.41;99432.25;1780878;78;21954;-81
2021/01/21 09:42:51;;;;;;;14.78;8.75;;;;;;;4.93;84.42;99430.08;1780225;78;21725;-81
2021/01/21 09:45:21;;;;;;;17.27;8.50;;;;;;;4.97;84.42;99435.14;1767307;79;21146;-81
2021/01/21 09:47:50;;;;;;;17.50;9.98;;;;;;;5.02;84.38;99435.09;1766494;79;21360;-81
2021/01/21 09:50:19;;;;;;;19.52;10.90;;;;;;;5.05;84.37;99428.64;1772383;79;21823;-81
2021/01/21 09:52:46;;;;;;;27.42;14.05;;;;;;;5.08;84.35;99432.88;1748333;80;21420;-81
2021/01/21 09:55:13;;;;;;;26.90;13.68;;;;;;;5.06;84.29;99425.21;1744893;80;21196;-81
2021/01/21 09:57:40;;;;;;;31.80;16.32;;;;;;;5.03;84.27;99415.00;1740738;80;21630;-81
2021/01/21 10:00:09;;;;;;;31.17;15.40;;;;;;;5.03;84.25;99411.59;1740302;80;21190;-80
2021/01/21 10:02:35;;;;;;;26.30;14.18;;;;;;;4.99;84.17;99413.34;1734162;82;21219;-81
2021/01/21 10:05:03;;;;;;;21.82;13.50;;;;;;;4.95;84.19;99412.97;1736247;80;22423;-82
2021/01/21 10:07:29;;;;;;;25.15;14.00;;;;;;;4.93;84.24;99416.83;1742568;80;21194;-81
2021/01/21 10:09:56;;;;;;;22.40;13.65;;;;;;;4.91;84.26;99410.88;1742629;80;22001;-81
2021/01/21 10:12:22;;;;;;;23.73;14.30;;;;;;;4.90;84.30;99413.03;1742632;80;21198;-81
2021/01/21 10:14:49;;;;;;;21.50;13.53;;;;;;;4.88;84.26;99404.52;1744150;80;21198;-81
2021/01/21 10:17:15;;;;;;;23.57;13.58;;;;;;;4.88;84.28;99404.95;1732435;80;22007;-81
2021/01/21 10:19:41;;;;;;;22.87;12.63;;;;;;;4.88;84.32;99398.11;1743317;80;21607;-82
2021/01/21 10:22:10;;;;;;;19.60;12.03;;;;;;;4.86;84.35;99385.76;1744432;80;21143;-82
2021/01/21 10:24:37;;;;;;;22.27;13.00;;;;;;;4.92;84.33;99387.39;1743139;80;21188;-82
2021/01/21 10:27:03;;;;;;;19.20;11.12;;;;;;;4.93;84.30;99375.84;1722221;82;21190;-82
2021/01/21 10:29:33;;;;;;;18.95;12.28;;;;;;;4.94;84.35;99386.51;1740610;80;21068;-82
2021/01/21 10:32:04;;;;;;;18.55;11.40;;;;;;;4.97;84.33;99392.03;1735203;80;21190;-82
2021/01/21 10:34:30;;;;;;;20.12;12.25;;;;;;;4.98;84.33;99397.13;1741286;80;21193;-80
2021/01/21 10:36:56;;;;;;;;;;;;;;;5.03;84.34;99396.22;1750199;80;21194;-81
2021/01/21 10:39:22;;;;;;;18.25;10.90;;;;;;;5.09;84.33;99394.43;1744361;80;20394;-81
2021/01/21 10:41:50;;;;;;;22.25;11.00;;;;;;;5.15;84.34;99393.06;1742878;80;21355;-81
2021/01/21 10:44:16;;;;;;;17.45;10.43;;;;;;;5.21;84.38;99399.80;1740209;80;21785;-82
2021/01/21 10:46:43;;;;;;;19.30;11.57;;;;;;;5.27;84.37;99394.58;1747744;80;21161;-81
2021/01/21 10:49:10;;;;;;;18.73;11.12;;;;;;;5.35;84.29;99386.78;1741456;80;21202;-82
2021/01/21 10:51:37;;;;;;;16.50;10.68;;;;;;;5.40;84.26;99368.34;1718996;82;21123;-81
2021/01/21 10:54:04;;;;;;;20.15;11.22;;;;;;;5.45;84.21;99369.13;1740899;80;21167;-81
2021/01/21 10:56:33;;;;;;;16.30;10.40;;;;;;;5.47;84.19;99361.82;1738675;80;21110;-81
2021/01/21 10:58:58;;;;;;;16.70;10.82;;;;;;;5.50;84.13;99361.77;1735047;80;21122;-81
2021/01/21 11:01:25;;;;;;;17.62;10.93;;;;;;;5.52;84.07;99359.19;1731363;82;22212;-80
2021/01/21 11:03:51;;;;;;;16.25;10.75;;;;;;;5.51;84.06;99350.64;1737182;81;22075;-81
2021/01/21 11:06:17;;;;;;;16.62;10.15;;;;;;;5.52;84.10;99363.03;1709052;82;21345;-81
2021/01/21 11:08:43;;;;;;;22.27;11.38;;;;;;;5.52;84.08;99356.62;1730203;80;21610;-81
2021/01/21 11:11:10;;;;;;;17.70;10.90;;;;;;;5.53;84.02;99351.91;1723544;80;21199;-80
2021/01/21 11:13:36;;;;;;;18.48;11.15;;;;;;;5.53;84.01;99350.19;1735344;80;21721;-81
2021/01/21 11:16:03;;;;;;;18.45;10.93;;;;;;;5.54;84.01;99340.78;1731966;80;21198;-81
2021/01/21 11:18:29;;;;;;;19.67;10.93;;;;;;;5.54;84.01;99340.34;1735037;81;25435;-81
2021/01/21 11:20:56;;;;;;;15.32;10.23;;;;;;;5.55;84.01;99347.16;1737817;82;21198;-80
2021/01/21 11:23:24;;;;;;;17.50;9.55;;;;;;;5.57;83.98;99345.86;1732021;80;28315;-81
2021/01/21 11:25:51;;;;;;;18.75;11.10;;;;;;;5.57;83.96;99340.30;1732498;82;21229;-81
2021/01/21 11:28:23;;;;;;;20.20;11.18;;;;;;;5.58;84.01;99338.14;1735476;82;21198;-81
2021/01/21 11:30:53;;;;;;;16.62;10.70;;;;;;;5.58;83.92;99342.42;1726714;80;21176;-81
2021/01/21 11:33:23;;;;;;;17.12;10.60;;;;;;;5.58;83.92;99328.32;1735389;80;21217;-80
2021/01/21 11:35:54;;;;;;;16.97;10.80;;;;;;;5.53;83.96;99323.27;1736451;80;21709;-80
2021/01/21 11:38:20;;;;;;;15.63;9.38;;;;;;;5.60;83.99;99327.42;1736452;80;21222;-82
2021/01/21 11:40:48;;;;;;;18.75;10.65;;;;;;;5.62;84.00;99314.58;1731878;82;21639;-82
2021/01/21 11:43:14;;;;;;;15.78;10.55;;;;;;;5.64;83.99;99333.34;1738628;80;21234;-82